Terminal Aerodrome Forecast
Issued by NWS

Home | Current Version | Previous Version | Text Only | Print | Product List | Glossary On
Versions: 1 2 3 4 5 6 7 8 9 10 11 12 13 14 15 16 17
000
FTUS45 KRIW 182329
TAFCPR
TAF
KCPR 182329Z 1900/1924 02015KT 1SM -SN BLSN OVC015
      TEMPO 1900/1904 3/4SM -SN BKN008
     FM190700 04011KT 2SM -SN OVC008
     FM191200 04011KT 1SM -SN OVC008
     FM192200 04011KT 3SM -SN OVC015=

USA.gov is the U.S. government's official web portal to all federal, state and local government web resources and services.